Main page
METAR-TAF:

METAR-TAF

Airports :

Portorož Airport

Portorož, Slovenia

latitude: 45-31N, longitude: 013-34E, elevation: 95 m

Current weather observation

The report was made 23 minutes ago, at 03:00 UTC
Wind 6 kt from the East/Southeast
Temperature 20°C
Humidity 78%
Pressure 1015 hPa
Visibility 10 km or more

METAR: LJPZ 200300Z AUTO 12006KT 9999 NCD 20/16 Q1015

Time: 05:23 (03:23 UTC)

Forecast

The report was made 1 hour and 23 minutes ago, at 02:00 UTC
Forecast valid from 20 at 03 UTC to 20 at 12 UTC
Wind 5 kt from the East/Southeast
Visibility 10 km or more
no clouds below 1500 m and no cumulonimbus
Becoming
from 20 at 08 UTC to 20 at 10 UTC
Wind 5 kt from the East
Few clouds at a height of 5000 ft
Scattered clouds at a height of 10000 ft

TAF: LJPZ 200200Z 2003/2012 11005KT CAVOK BECMG 2008/2010 08005KT FEW050 SCT100

Weather observations and forecasts of more than 4000 airports (METAR and TAF reports).

The available stations are represented by yellow and red dots on the map.

Hover mouse over dot to see the name of the station.

Then click to see weather observations and forecasts.

To change the map : click on the green buttons with a black cross to zoom in, on the green button with a dash to zoom out, or on the green arrows for adjacent maps.


METAR-TAF: